Time;durP1;ratioP1;P1;durP2;ratioP2;P2;SDS_P1;SDS_P2;PMS_P1;PMS_P2;Temp;Humidity;BMP_temperature;BMP_pressure;BME280_temperature;BME280_humidity;BME280_pressure;Samples;Min_cycle;Max_cycle;Signal;HPM_P1;HPM_P2
2022/08/09 00:05:08;;;;;;;3.33;1.40;;;20.40;80.90;;;;;;6292163;22;20007;-88
2022/08/09 00:07:46;;;;;;;2.67;1.15;;;20.50;80.90;;;;;;6261539;22;20004;-89
2022/08/09 00:10:44;;;;;;;;;;;;;;;;;;;;;
2022/08/09 00:13:33;;;;;;;1.35;0.95;;;20.50;80.60;;;;;;6291791;22;20035;-89
2022/08/09 00:16:13;;;;;;;2.35;1.17;;;20.50;80.80;;;;;;6261599;22;20046;-89
2022/08/09 00:19:15;;;;;;;2.08;1.30;;;20.50;81.00;;;;;;6262474;22;20008;-88
2022/08/09 00:22:31;;;;;;;;;;;;;;;;;;;;;
2022/08/09 00:25:26;;;;;;;2.08;1.30;;;20.50;81.00;;;;;;6308781;22;20034;-89
2022/08/09 00:28:02;;;;;;;;;;;;;;;;;;;;;
2022/08/09 00:31:05;;;;;;;;;;;;;;;;;;;;;
2022/08/09 00:34:24;;;;;;;;;;;;;;;;;;;;;
2022/08/09 00:37:06;;;;;;;1.75;1.25;;;20.50;80.90;;;;;;6316946;22;20027;-89
2022/08/09 00:40:10;;;;;;;;;;;;;;;;;;;;;
2022/08/09 00:42:45;;;;;;;2.25;1.30;;;20.40;81.20;;;;;;6310774;22;20018;-89
2022/08/09 00:45:25;;;;;;;2.47;1.40;;;20.40;81.20;;;;;;6288581;22;20009;-89
2022/08/09 00:48:12;;;;;;;4.80;1.42;;;20.30;81.50;;;;;;6290472;22;20080;-89
2022/08/09 00:51:02;;;;;;;;;;;;;;;;;;;;;
2022/08/09 00:56:40;;;;;;;;;;;;;;;;;;;;;
2022/08/09 00:59:31;;;;;;;2.60;1.30;;;20.20;81.80;;;;;;6316584;22;20023;-89
2022/08/09 01:05:18;;;;;;;2.83;1.42;;;20.10;82.10;;;;;;6216837;22;19902;-87
2022/08/09 01:08:12;;;;;;;3.60;1.50;;;20.10;82.20;;;;;;6264156;22;20022;-88
2022/08/09 01:11:56;;;;;;;3.00;1.75;;;20.10;82.20;;;;;;6288828;22;20003;-88
2022/08/09 01:14:30;;;;;;;2.65;1.50;;;20.10;82.40;;;;;;6191918;23;20016;-88
2022/08/09 01:17:46;;;;;;;;;;;;;;;;;;;;;
2022/08/09 01:20:59;;;;;;;1.88;1.50;;;20.00;82.90;;;;;;6315960;22;20046;-88
2022/08/09 01:27:20;;;;;;;3.42;1.77;;;19.90;83.00;;;;;;6315826;22;20054;-89
2022/08/09 01:30:05;;;;;;;;;;;;;;;;;;;;;
2022/08/09 01:33:02;;;;;;;2.78;1.38;;;19.80;83.60;;;;;;6286018;22;20030;-88
2022/08/09 01:36:19;;;;;;;3.22;1.65;;;19.80;83.80;;;;;;6284901;22;20004;-90
2022/08/09 01:38:52;;;;;;;4.00;1.80;;;19.70;83.70;;;;;;6283939;22;20098;-88
2022/08/09 01:41:41;;;;;;;4.03;1.98;;;19.70;83.80;;;;;;6284899;22;19999;-89
2022/08/09 01:44:21;;;;;;;4.10;1.80;;;19.80;83.80;;;;;;6256056;22;20007;-89
2022/08/09 01:46:56;;;;;;;3.08;1.63;;;19.80;83.70;;;;;;6288134;22;20003;-90
2022/08/09 01:49:36;;;;;;;4.43;2.10;;;19.80;83.80;;;;;;6270992;22;20067;-89
2022/08/09 01:52:14;;;;;;;2.45;1.83;;;19.90;83.80;;;;;;6305666;22;19999;-89
2022/08/09 01:55:20;;;;;;;2.90;1.95;;;19.80;83.80;;;;;;6304396;22;20003;-88
2022/08/09 01:58:02;;;;;;;;;;;;;;;;;;;;;
2022/08/09 02:00:38;;;;;;;3.72;2.13;;;19.70;84.20;;;;;;6294846;22;20058;-88
2022/08/09 02:03:08;;;;;;;3.03;2.25;;;19.70;84.20;;;;;;6284215;22;20008;-89
2022/08/09 02:05:37;;;;;;;2.80;1.75;;;19.70;84.20;;;;;;6260090;22;20008;-89
2022/08/09 02:08:12;;;;;;;3.65;1.85;;;19.70;84.50;;;;;;6258240;22;20007;-88
2022/08/09 02:10:52;;;;;;;3.60;2.08;;;19.60;84.50;;;;;;6283562;22;20004;-90
2022/08/09 02:16:41;;;;;;;4.57;2.30;;;19.60;84.40;;;;;;6287713;22;20049;-89
2022/08/09 02:19:30;;;;;;;3.00;2.10;;;19.60;84.50;;;;;;6286454;22;20037;-89
2022/08/09 02:22:12;;;;;;;4.97;2.47;;;19.60;84.60;;;;;;6285610;22;20000;-88
2022/08/09 02:25:16;;;;;;;;;;;;;;;;;;;;;
2022/08/09 02:27:57;;;;;;;3.53;2.83;;;19.50;84.80;;;;;;6289021;22;20440;-89
2022/08/09 02:31:07;;;;;;;3.88;2.53;;;19.40;85.20;;;;;;6309547;22;20015;-89
2022/08/09 02:33:43;;;;;;;3.20;2.20;;;19.40;85.60;;;;;;6317201;22;20019;-88
2022/08/09 02:36:29;;;;;;;;;;;;;;;;;;;;;
2022/08/09 02:39:15;;;;;;;6.57;2.85;;;19.40;85.70;;;;;;6291973;22;20049;-89
2022/08/09 02:41:51;;;;;;;4.78;2.70;;;19.40;85.80;;;;;;6287854;22;19999;-87
2022/08/09 02:44:52;;;;;;;;;;;;;;;;;;;;;
2022/08/09 02:47:27;;;;;;;2.72;2.45;;;19.30;86.00;;;;;;6315624;22;20022;-89
2022/08/09 02:50:28;;;;;;;;;;;;;;;;;;;;;
2022/08/09 02:53:44;;;;;;;4.65;2.28;;;19.30;86.30;;;;;;6315245;22;20023;-89
2022/08/09 02:56:29;;;;;;;2.53;2.13;;;19.20;86.30;;;;;;6151933;22;20009;-87
2022/08/09 02:59:03;;;;;;;3.45;2.40;;;19.20;86.50;;;;;;6289098;22;19999;-90
2022/08/09 03:01:44;;;;;;;4.30;2.65;;;19.20;86.50;;;;;;6289265;22;19999;-89
2022/08/09 03:04:14;;;;;;;5.45;2.83;;;19.30;86.40;;;;;;6264080;22;20011;-89
2022/08/09 03:06:45;;;;;;;5.30;2.75;;;19.30;86.20;;;;;;6287885;22;20005;-90
2022/08/09 03:09:26;;;;;;;4.05;2.95;;;19.30;86.30;;;;;;6264064;22;20007;-89
2022/08/09 03:12:05;;;;;;;;;;;;;;;;;;;;;
2022/08/09 03:14:51;;;;;;;;;;;;;;;;;;;;;
2022/08/09 03:18:10;;;;;;;;;;;;;;;;;;;;;
2022/08/09 03:20:52;;;;;;;4.38;2.85;;;19.30;86.60;;;;;;6314746;22;20026;-88
2022/08/09 03:23:49;;;;;;;4.78;2.88;;;19.30;86.60;;;;;;6313980;22;20003;-88
2022/08/09 03:29:53;;;;;;;;;;;;;;;;;;;;;
2022/08/09 03:36:14;;;;;;;;;;;;;;;;;;;;;
2022/08/09 03:38:53;;;;;;;4.32;2.97;;;19.00;87.70;;;;;;6205065;23;20036;-90
2022/08/09 03:41:24;;;;;;;4.78;3.13;;;19.00;88.00;;;;;;6283436;22;20086;-89
2022/08/09 03:44:14;;;;;;;;;;;;;;;;;;;;;
2022/08/09 03:47:01;;;;;;;4.07;2.93;;;19.10;87.80;;;;;;6331790;22;19890;-88
2022/08/09 03:50:43;;;;;;;;;;;;;;;;;;;;;
2022/08/09 03:53:09;;;;;;;4.72;3.40;;;19.00;88.20;;;;;;6324858;22;20012;-89
2022/08/09 03:56:02;;;;;;;4.60;3.42;;;19.00;88.30;;;;;;6300750;22;20038;-90
2022/08/09 03:58:57;;;;;;;4.72;3.30;;;19.00;88.40;;;;;;6291460;22;20029;-89
2022/08/09 04:01:42;;;;;;;;;;;;;;;;;;;;;
2022/08/09 04:04:46;;;;;;;7.88;3.75;;;19.00;88.90;;;;;;6314753;22;20026;-89
2022/08/09 04:07:20;;;;;;;6.32;4.13;;;19.00;88.60;;;;;;6314003;22;20147;-89
2022/08/09 04:09:49;;;;;;;3.88;3.10;;;19.00;88.50;;;;;;6287367;22;20015;-88
2022/08/09 04:12:46;;;;;;;5.07;3.45;;;19.00;88.60;;;;;;6288999;22;20003;-89
2022/08/09 04:16:14;;;;;;;;;;;;;;;;;;;;;
2022/08/09 04:19:10;;;;;;;4.60;3.95;;;18.90;88.70;;;;;;6293383;22;20031;-88
2022/08/09 04:21:48;;;;;;;4.47;3.35;;;18.80;89.20;;;;;;6274681;22;20003;-89
2022/08/09 04:24:56;;;;;;;5.07;3.55;;;18.70;89.50;;;;;;6265780;22;20003;-89
2022/08/09 04:27:36;;;;;;;4.38;3.38;;;18.70;89.70;;;;;;6289234;22;20026;-87
2022/08/09 04:30:23;;;;;;;6.20;4.13;;;18.80;89.50;;;;;;6260245;22;20019;-88
2022/08/09 04:33:09;;;;;;;5.55;3.95;;;18.90;89.30;;;;;;6281648;22;20250;-89
2022/08/09 04:40:03;;;;;;;;;;;;;;;;;;;;;
2022/08/09 04:43:02;;;;;;;6.90;3.95;;;18.70;89.80;;;;;;6286045;22;20031;-90
2022/08/09 04:46:04;;;;;;;5.47;3.97;;;18.70;89.80;;;;;;6284063;22;20432;-93
2022/08/09 04:49:32;;;;;;;;;;;;;;;;;;;;;
2022/08/09 05:05:37;;;;;;;;;;;;;;;;;;;;;
2022/08/09 05:08:47;;;;;;;6.35;4.13;;;18.80;89.90;;;;;;6281290;22;20003;-92
2022/08/09 05:18:32;;;;;;;;;;;;;;;;;;;;;
2022/08/09 05:21:26;;;;;;;6.78;3.78;;;18.80;90.00;;;;;;6163410;23;20029;-90
2022/08/09 05:24:28;;;;;;;;;;;;;;;;;;;;;
2022/08/09 05:27:19;;;;;;;6.47;4.25;;;18.80;90.00;;;;;;6279744;22;20027;-90
2022/08/09 05:30:12;;;;;;;5.55;3.58;;;18.80;90.10;;;;;;6259954;22;20015;-91
2022/08/09 05:32:55;;;;;;;5.18;2.85;;;18.90;90.10;;;;;;6291019;22;20007;-91
2022/08/09 05:45:49;;;;;;;;;;;;;;;;;;;;;
2022/08/09 05:53:05;;;;;;;;;;;;;;;;;;;;;
2022/08/09 05:56:13;;;;;;;;;;;;;;;;;;;;;
2022/08/09 05:58:56;;;;;;;;;;;;;;;;;;;;;
2022/08/09 06:02:24;;;;;;;5.95;3.45;;;19.10;90.00;;;;;;6232433;23;20104;-91
2022/08/09 06:05:31;;;;;;;;;;;;;;;;;;;;;
2022/08/09 06:08:24;;;;;;;;;;;;;;;;;;;;;
2022/08/09 06:11:15;;;;;;;6.55;3.63;;;19.00;90.30;;;;;;6262633;23;20020;-90
2022/08/09 06:20:36;;;;;;;4.22;3.42;;;19.00;90.30;;;;;;6280046;22;20014;-92
2022/08/09 06:23:41;;;;;;;;;;;;;;;;;;;;;
2022/08/09 06:29:44;;;;;;;4.60;3.50;;;19.00;90.30;;;;;;6272002;22;20023;-90
2022/08/09 06:32:41;;;;;;;;;;;;;;;;;;;;;
2022/08/09 06:35:16;;;;;;;4.78;3.10;;;19.00;90.40;;;;;;6294283;22;20023;-90
2022/08/09 06:38:42;;;;;;;5.47;3.13;;;19.00;90.50;;;;;;6290191;22;20018;-90
2022/08/09 06:41:48;;;;;;;;;;;;;;;;;;;;;
2022/08/09 06:48:16;;;;;;;5.40;2.70;;;19.10;90.40;;;;;;6314292;22;20003;-92
2022/08/09 06:51:20;;;;;;;5.93;3.00;;;19.20;90.40;;;;;;6192478;23;20001;-91
2022/08/09 06:57:14;;;;;;;;;;;;;;;;;;;;;
2022/08/09 07:03:36;;;;;;;4.38;2.25;;;19.60;90.10;;;;;;6192415;23;20029;-90
2022/08/09 07:06:46;;;;;;;4.72;2.78;;;19.80;89.80;;;;;;6270442;22;20011;-90
2022/08/09 07:09:45;;;;;;;;;;;;;;;;;;;;;
2022/08/09 07:16:48;;;;;;;;;;;;;;;;;;;;;
2022/08/09 07:23:02;;;;;;;;;;;;;;;;;;;;;
2022/08/09 07:25:46;;;;;;;4.30;1.70;;;20.10;88.80;;;;;;6192908;23;20036;-90
2022/08/09 07:28:47;;;;;;;;;;;;;;;;;;;;;
2022/08/09 09:02:51;;;;;;;;;;;;;;;;;;;;;
2022/08/09 09:06:21;;;;;;;;;;;;;;;;;;;;;
2022/08/09 09:24:18;;;;;;;;;;;;;;;;;;;;;
2022/08/09 09:27:19;;;;;;;;;;;;;;;;;;;;;
2022/08/09 09:34:02;;;;;;;;;;;;;;;;;;;;;
2022/08/09 09:40:51;;;;;;;0.93;0.50;;;22.90;72.10;;;;;;5911992;24;20025;-91
2022/08/09 09:52:38;;;;;;;1.40;0.60;;;23.10;71.30;;;;;;6226938;23;20004;-90
2022/08/09 10:04:00;;;;;;;1.40;0.47;;;23.30;69.50;;;;;;6037575;23;20012;-91
2022/08/09 11:30:28;;;;;;;0.85;0.43;;;24.70;64.50;;;;;;6091629;23;20034;-91
2022/08/09 11:33:26;;;;;;;;;;;;;;;;;;;;;
2022/08/09 11:37:33;;;;;;;;;;;;;;;;;;;;;
2022/08/09 11:40:38;;;;;;;2.65;0.77;;;24.90;64.70;;;;;;6040260;23;20031;-90
2022/08/09 11:43:55;;;;;;;;;;;;;;;;;;;;;
2022/08/09 11:50:45;;;;;;;;;;;;;;;;;;;;;
2022/08/09 11:53:25;;;;;;;0.70;0.30;;;25.00;64.80;;;;;;6088737;23;20013;-89
2022/08/09 11:56:25;;;;;;;;;;;;;;;;;;;;;
2022/08/09 11:59:09;;;;;;;;;;;;;;;;;;;;;
2022/08/09 12:02:20;;;;;;;;;;;;;;;;;;;;;
2022/08/09 12:08:26;;;;;;;;;;;;;;;;;;;;;
2022/08/09 12:14:52;;;;;;;;;;;;;;;;;;;;;
2022/08/09 12:18:17;;;;;;;;;;;;;;;;;;;;;
2022/08/09 12:24:50;;;;;;;2.55;0.55;;;25.40;62.40;;;;;;6104320;23;20018;-90
2022/08/09 12:38:39;;;;;;;1.25;0.60;;;25.60;62.00;;;;;;6036022;23;20038;-92
2022/08/09 12:44:52;;;;;;;2.67;0.70;;;25.60;61.60;;;;;;6023019;23;20019;-90
2022/08/09 12:47:39;;;;;;;1.30;0.50;;;25.70;61.40;;;;;;6035807;23;20004;-89
2022/08/09 12:50:37;;;;;;;1.05;0.70;;;25.70;61.40;;;;;;5969697;24;20018;-90
2022/08/09 12:53:37;;;;;;;1.23;0.60;;;25.80;61.50;;;;;;6103426;23;20038;-90
2022/08/09 12:59:33;;;;;;;0.75;0.50;;;25.90;60.80;;;;;;6213260;23;20500;-90
2022/08/09 13:02:09;;;;;;;1.70;0.65;;;26.00;60.90;;;;;;6211089;23;20013;-90
2022/08/09 13:05:11;;;;;;;;;;;;;;;;;;;;;
2022/08/09 13:08:52;;;;;;;1.75;0.50;;;26.10;60.60;;;;;;6220041;23;20028;-89
2022/08/09 13:18:01;;;;;;;;;;;;;;;;;;;;;
2022/08/09 13:21:21;;;;;;;1.33;0.22;;;26.20;59.60;;;;;;6050781;23;20051;-90
2022/08/09 13:31:34;;;;;;;1.25;0.60;;;26.40;60.30;;;;;;6154501;23;20013;-90
2022/08/09 13:34:23;;;;;;;0.45;0.30;;;26.40;59.70;;;;;;6123403;23;20428;-91
2022/08/09 13:37:31;;;;;;;1.02;0.40;;;26.40;59.10;;;;;;6232301;23;20063;-90
2022/08/09 13:44:06;;;;;;;;;;;;;;;;;;;;;
2022/08/09 13:47:09;;;;;;;;;;;;;;;;;;;;;
2022/08/09 13:49:54;;;;;;;1.25;0.60;;;26.60;59.40;;;;;;6231440;23;20004;-91
2022/08/09 13:52:44;;;;;;;1.02;0.40;;;26.60;58.50;;;;;;6222791;23;20056;-91
2022/08/09 13:55:57;;;;;;;0.55;0.40;;;26.60;58.90;;;;;;6227129;23;20487;-90
2022/08/09 13:58:52;;;;;;;1.20;0.50;;;26.70;58.70;;;;;;6213902;23;20029;-90
2022/08/09 14:11:21;;;;;;;;;;;;;;;;;;;;;
2022/08/09 14:17:14;;;;;;;;;;;;;;;;;;;;;
2022/08/09 14:20:01;;;;;;;1.35;0.60;;;26.90;58.20;;;;;;6127093;23;20392;-91
2022/08/09 14:26:19;;;;;;;;;;;;;;;;;;;;;
2022/08/09 14:32:31;;;;;;;;;;;;;;;;;;;;;
2022/08/09 14:35:24;;;;;;;0.73;0.40;;;27.00;57.20;;;;;;6194496;23;20025;-91
2022/08/09 14:42:01;;;;;;;1.23;0.60;;;27.10;57.00;;;;;;6165554;23;20378;-90
2022/08/09 14:47:53;;;;;;;0.95;0.70;;;27.20;56.70;;;;;;6192731;23;20066;-91
2022/08/09 14:50:56;;;;;;;;;;;;;;;;;;;;;
2022/08/09 14:54:18;;;;;;;;;;;;;;;;;;;;;
2022/08/09 14:57:18;;;;;;;;;;;;;;;;;;;;;
2022/08/09 15:00:19;;;;;;;0.70;0.40;;;27.20;56.10;;;;;;6187488;23;20084;-90
2022/08/09 15:03:21;;;;;;;;;;;;;;;;;;;;;
2022/08/09 15:13:16;;;;;;;;;;;;;;;;;;;;;
2022/08/09 15:19:20;;;;;;;;;;;;;;;;;;;;;
2022/08/09 15:22:18;;;;;;;;;;;;;;;;;;;;;
2022/08/09 15:25:21;;;;;;;0.80;0.43;;;27.30;55.30;;;;;;6129994;23;20041;-90
2022/08/09 15:28:25;;;;;;;;;;;;;;;;;;;;;
2022/08/09 15:34:26;;;;;;;;;;;;;;;;;;;;;
2022/08/09 15:37:43;;;;;;;;;;;;;;;;;;;;;
2022/08/09 15:41:09;;;;;;;1.20;0.52;;;27.40;55.10;;;;;;6194311;23;20044;-89
2022/08/09 15:44:16;;;;;;;;;;;;;;;;;;;;;
2022/08/09 15:47:02;;;;;;;;;;;;;;;;;;;;;
2022/08/09 15:50:01;;;;;;;1.40;0.60;;;27.50;55.50;;;;;;6152555;23;20044;-91
2022/08/09 15:52:51;;;;;;;1.10;0.60;;;27.60;55.60;;;;;;6168820;23;20415;-89
2022/08/09 15:55:24;;;;;;;0.85;0.50;;;27.70;55.80;;;;;;6175425;23;20020;-88
2022/08/09 15:58:43;;;;;;;;;;;;;;;;;;;;;
2022/08/09 16:05:07;;;;;;;2.30;0.60;;;27.70;55.60;;;;;;6114346;23;20034;-88
2022/08/09 16:10:42;;;;;;;0.82;0.70;;;27.60;55.50;;;;;;6170789;23;20009;-89
2022/08/09 16:17:05;;;;;;;1.15;0.85;;;27.60;55.60;;;;;;6150658;23;20009;-88
2022/08/09 16:20:05;;;;;;;;;;;;;;;;;;;;;
2022/08/09 16:22:42;;;;;;;1.17;0.40;;;27.60;55.80;;;;;;6169922;23;20002;-89
2022/08/09 16:25:37;;;;;;;0.82;0.60;;;27.50;55.80;;;;;;6168476;23;20009;-89
2022/08/09 16:28:40;;;;;;;0.90;0.55;;;27.50;55.40;;;;;;6149511;23;20009;-91
2022/08/09 16:34:24;;;;;;;0.75;0.52;;;27.50;55.30;;;;;;6131824;23;20424;-88
2022/08/09 16:37:07;;;;;;;1.23;0.52;;;27.50;55.50;;;;;;6106601;23;20046;-89
2022/08/09 16:39:46;;;;;;;;;;;;;;;;;;;;;
2022/08/09 16:42:40;;;;;;;1.33;0.88;;;27.60;55.20;;;;;;6133211;23;20025;-89
2022/08/09 16:45:16;;;;;;;1.58;0.75;;;27.50;55.50;;;;;;6107701;23;20002;-90
2022/08/09 16:48:12;;;;;;;0.70;0.50;;;27.50;55.60;;;;;;6107223;23;20048;-89
2022/08/09 16:53:40;;;;;;;0.63;0.55;;;27.60;56.00;;;;;;6117891;23;20013;-91
2022/08/09 16:56:15;;;;;;;0.85;0.50;;;27.60;56.00;;;;;;6108261;23;20033;-89
2022/08/09 16:59:00;;;;;;;0.90;0.60;;;27.60;55.80;;;;;;6146242;23;20017;-90
2022/08/09 17:01:53;;;;;;;0.60;0.50;;;27.50;55.90;;;;;;6141348;23;20093;-90
2022/08/09 17:08:19;;;;;;;;;;;;;;;;;;;;;
2022/08/09 17:11:15;;;;;;;0.80;0.55;;;27.40;55.50;;;;;;6099051;23;20090;-88
2022/08/09 17:13:56;;;;;;;0.75;0.40;;;27.30;55.70;;;;;;6052458;23;20018;-91
2022/08/09 17:20:07;;;;;;;1.13;0.43;;;27.30;55.50;;;;;;6085642;23;20030;-89
2022/08/09 17:23:06;;;;;;;1.42;0.43;;;27.20;55.20;;;;;;6078837;23;20010;-90
2022/08/09 17:26:09;;;;;;;;;;;;;;;;;;;;;
2022/08/09 17:29:08;;;;;;;1.15;0.50;;;27.10;55.70;;;;;;6107051;23;20025;-87
2022/08/09 17:32:02;;;;;;;1.30;0.52;;;27.10;56.00;;;;;;6082292;23;20075;-89
2022/08/09 17:35:11;;;;;;;;;;;;;;;;;;;;;
2022/08/09 17:38:04;;;;;;;1.85;0.40;;;27.10;56.20;;;;;;6109604;23;20030;-89
2022/08/09 17:40:44;;;;;;;0.70;0.50;;;27.10;56.40;;;;;;6084083;23;20062;-91
2022/08/09 17:43:31;;;;;;;0.45;0.40;;;27.00;56.50;;;;;;6084537;23;20013;-89
2022/08/09 17:46:03;;;;;;;1.00;0.57;;;27.00;56.60;;;;;;6142986;23;20318;-90
2022/08/09 17:48:29;;;;;;;1.15;0.68;;;27.00;56.40;;;;;;6168177;23;20017;-90
2022/08/09 17:54:18;;;;;;;;;;;;;;;;;;;;;
2022/08/09 17:56:50;;;;;;;1.48;0.60;;;26.90;56.80;;;;;;6169941;23;20021;-91
2022/08/09 17:59:39;;;;;;;1.70;0.70;;;26.90;56.40;;;;;;6167867;23;20009;-89
2022/08/09 18:02:16;;;;;;;2.10;0.77;;;26.80;56.80;;;;;;6145679;23;20066;-90
2022/08/09 18:05:04;;;;;;;0.73;0.60;;;26.80;57.00;;;;;;6168291;23;20445;-91
2022/08/09 18:07:47;;;;;;;1.85;0.60;;;26.80;57.30;;;;;;6166602;23;20012;-89
2022/08/09 18:10:30;;;;;;;;;;;;;;;;;;;;;
2022/08/09 18:13:16;;;;;;;2.15;0.50;;;26.70;56.50;;;;;;6169739;23;20472;-90
2022/08/09 18:15:48;;;;;;;1.27;0.73;;;26.70;56.30;;;;;;6167349;23;20002;-90
2022/08/09 18:18:40;;;;;;;2.08;0.50;;;26.50;56.50;;;;;;6167578;23;20033;-88
2022/08/09 18:21:11;;;;;;;1.20;0.93;;;26.50;56.70;;;;;;6144036;23;20005;-88
2022/08/09 18:23:43;;;;;;;1.00;0.90;;;26.40;56.80;;;;;;6144460;23;20393;-89
2022/08/09 18:26:27;;;;;;;2.92;1.10;;;26.40;56.90;;;;;;6170832;23;20001;-89
2022/08/09 18:28:56;;;;;;;0.88;0.70;;;26.30;56.90;;;;;;6165120;23;20009;-88
2022/08/09 18:31:50;;;;;;;1.65;0.68;;;26.30;57.10;;;;;;6163616;23;20009;-90
2022/08/09 18:34:58;;;;;;;0.60;0.50;;;26.30;57.00;;;;;;6195405;23;20013;-88
2022/08/09 18:37:39;;;;;;;1.35;0.80;;;26.20;57.40;;;;;;6190667;23;20001;-89
2022/08/09 18:40:13;;;;;;;0.80;0.77;;;26.20;57.50;;;;;;6183796;23;20013;-89
2022/08/09 18:42:48;;;;;;;1.58;0.70;;;26.20;57.50;;;;;;6170633;23;20027;-90
2022/08/09 18:45:40;;;;;;;1.20;0.70;;;26.20;57.50;;;;;;6173973;23;20008;-88
2022/08/09 18:48:08;;;;;;;0.88;0.70;;;26.20;57.10;;;;;;6147740;23;20005;-91
2022/08/09 18:50:47;;;;;;;2.35;0.60;;;26.10;57.00;;;;;;6145546;23;20096;-89
2022/08/09 18:53:53;;;;;;;2.45;0.90;;;26.00;57.20;;;;;;6144720;23;20016;-89
2022/08/09 18:56:43;;;;;;;;;;;;;;;;;;;;;
2022/08/09 18:59:40;;;;;;;1.90;0.93;;;25.90;57.40;;;;;;6172876;23;20379;-90
2022/08/09 19:05:32;;;;;;;1.30;0.73;;;25.80;57.40;;;;;;6184723;23;20037;-88
2022/08/09 19:08:03;;;;;;;1.10;0.70;;;25.70;57.60;;;;;;6151349;23;20041;-88
2022/08/09 19:10:47;;;;;;;1.27;0.73;;;25.70;57.60;;;;;;6145396;23;20020;-90
2022/08/09 19:13:41;;;;;;;1.80;0.90;;;25.70;57.80;;;;;;6172456;23;20040;-89
2022/08/09 19:17:28;;;;;;;0.90;0.70;;;25.60;57.80;;;;;;6171754;23;20013;-89
2022/08/09 19:23:00;;;;;;;;;;;;;;;;;;;;;
2022/08/09 19:25:54;;;;;;;0.70;0.70;;;25.50;58.30;;;;;;6046904;23;20061;-88
2022/08/09 19:28:30;;;;;;;1.13;0.80;;;25.50;58.30;;;;;;6021902;23;20007;-88
2022/08/09 19:31:14;;;;;;;1.55;0.50;;;25.50;58.50;;;;;;6168870;23;20001;-90
2022/08/09 19:33:55;;;;;;;;;;;;;;;;;;;;;
2022/08/09 19:36:37;;;;;;;;;;;;;;;;;;;;;
2022/08/09 19:39:14;;;;;;;0.70;0.60;;;25.40;59.00;;;;;;6169764;23;20039;-88
2022/08/09 19:41:57;;;;;;;1.33;0.80;;;25.40;59.20;;;;;;6144858;23;20024;-89
2022/08/09 19:45:07;;;;;;;;;;;;;;;;;;;;;
2022/08/09 19:47:41;;;;;;;0.65;0.55;;;25.30;59.80;;;;;;6150310;23;20037;-89
2022/08/09 19:50:19;;;;;;;0.82;0.50;;;25.10;60.00;;;;;;6167504;23;20017;-89
2022/08/09 19:52:45;;;;;;;1.02;0.65;;;25.10;60.50;;;;;;6162760;23;20001;-89
2022/08/09 19:55:14;;;;;;;1.33;0.60;;;25.10;61.10;;;;;;6165694;23;20029;-89
2022/08/09 19:57:58;;;;;;;;;;;;;;;;;;;;;
2022/08/09 20:00:27;;;;;;;0.90;0.68;;;24.80;61.90;;;;;;6172539;23;20035;-91
2022/08/09 20:03:06;;;;;;;0.65;0.50;;;24.80;62.10;;;;;;6143255;23;20167;-90
2022/08/09 20:05:43;;;;;;;1.15;0.73;;;24.90;62.50;;;;;;6144849;23;20104;-89
2022/08/09 20:08:18;;;;;;;0.85;0.75;;;24.90;62.70;;;;;;6145698;23;20085;-89
2022/08/09 20:11:10;;;;;;;2.55;0.63;;;24.80;63.20;;;;;;6193471;23;20008;-90
2022/08/09 20:13:48;;;;;;;1.15;0.60;;;24.70;63.80;;;;;;6152099;23;20018;-89
2022/08/09 20:16:18;;;;;;;2.35;1.10;;;24.70;64.40;;;;;;6163812;23;20006;-88
2022/08/09 20:18:55;;;;;;;1.15;0.70;;;24.60;64.60;;;;;;6163193;23;20013;-89
2022/08/09 20:24:20;;;;;;;0.60;0.60;;;24.60;65.40;;;;;;6153945;23;20305;-89
2022/08/09 20:26:55;;;;;;;0.80;0.80;;;24.50;65.50;;;;;;6164296;23;20009;-90
2022/08/09 20:29:39;;;;;;;1.15;0.77;;;24.50;65.70;;;;;;6163795;23;20016;-88
2022/08/09 20:32:11;;;;;;;1.88;0.80;;;24.50;66.10;;;;;;6162890;23;20002;-86
2022/08/09 20:34:43;;;;;;;0.75;0.70;;;24.50;66.30;;;;;;6163538;23;20032;-89
2022/08/09 20:37:21;;;;;;;1.90;0.88;;;24.40;66.50;;;;;;6170528;23;20077;-86
2022/08/09 20:39:51;;;;;;;1.17;0.70;;;24.40;66.90;;;;;;6153464;23;20018;-87
2022/08/09 20:42:27;;;;;;;2.28;0.60;;;24.30;66.90;;;;;;6150504;23;20005;-88
2022/08/09 20:45:07;;;;;;;1.05;0.77;;;24.30;67.10;;;;;;6179455;23;20033;-88
2022/08/09 20:47:45;;;;;;;2.97;0.77;;;24.20;67.30;;;;;;6160162;23;19997;-87
2022/08/09 20:50:27;;;;;;;1.27;0.85;;;24.20;67.50;;;;;;6183311;23;20097;-89
2022/08/09 20:52:58;;;;;;;1.90;0.70;;;24.10;67.90;;;;;;6165067;23;20008;-88
2022/08/09 20:55:37;;;;;;;1.70;0.75;;;23.90;68.50;;;;;;6138240;23;20009;-88
2022/08/09 20:58:05;;;;;;;1.95;0.82;;;23.80;68.80;;;;;;6162320;23;20020;-87
2022/08/09 21:00:44;;;;;;;1.77;1.10;;;23.80;69.10;;;;;;6161446;23;20009;-89
2022/08/09 21:03:13;;;;;;;0.90;0.70;;;23.70;69.40;;;;;;6161463;23;20001;-87
2022/08/09 21:05:55;;;;;;;4.50;0.77;;;23.60;69.40;;;;;;6161442;23;20416;-89
2022/08/09 21:08:31;;;;;;;1.42;0.57;;;23.50;69.80;;;;;;6161957;23;20033;-87
2022/08/09 21:11:06;;;;;;;1.17;0.75;;;23.30;70.30;;;;;;6162205;23;19998;-89
2022/08/09 21:13:34;;;;;;;2.03;0.70;;;23.20;70.50;;;;;;6186052;23;20018;-86
2022/08/09 21:16:11;;;;;;;1.40;0.63;;;23.10;70.70;;;;;;6161763;23;20002;-87
2022/08/09 21:18:42;;;;;;;1.38;0.60;;;23.10;70.70;;;;;;6160772;23;20013;-90
2022/08/09 21:21:30;;;;;;;1.42;0.70;;;23.10;71.00;;;;;;6162383;23;20009;-88
2022/08/09 21:23:58;;;;;;;0.60;0.60;;;23.10;71.00;;;;;;6162266;23;20390;-88
2022/08/09 21:26:50;;;;;;;1.38;0.88;;;23.00;71.00;;;;;;6169431;23;20068;-86
2022/08/09 21:29:26;;;;;;;2.45;0.80;;;23.00;71.00;;;;;;6170153;23;20013;-86
2022/08/09 21:32:05;;;;;;;1.40;0.80;;;23.00;71.00;;;;;;6168990;23;20001;-87
2022/08/09 21:34:36;;;;;;;1.23;0.60;;;23.00;71.00;;;;;;6143815;23;20001;-86
2022/08/09 21:37:14;;;;;;;0.73;0.70;;;22.90;71.00;;;;;;6140577;23;20016;-89
2022/08/09 21:39:40;;;;;;;1.20;0.80;;;22.80;71.00;;;;;;6137537;23;20332;-88
2022/08/09 21:42:11;;;;;;;1.23;0.80;;;22.70;71.10;;;;;;6161513;23;20002;-88
2022/08/09 21:44:50;;;;;;;;;;;;;;;;;;;;;
2022/08/09 21:47:17;;;;;;;0.70;0.60;;;22.60;71.30;;;;;;6163172;23;20021;-89
2022/08/09 21:50:01;;;;;;;0.82;0.60;;;22.60;71.50;;;;;;6161523;23;20450;-87
2022/08/09 21:52:41;;;;;;;3.80;1.30;;;22.50;71.60;;;;;;6139066;23;20010;-87
2022/08/09 21:55:17;;;;;;;1.63;0.90;;;22.50;71.60;;;;;;6138750;23;20040;-87
2022/08/09 21:57:52;;;;;;;;;;;;;;;;;;;;;
2022/08/09 22:01:00;;;;;;;0.60;0.50;;;22.40;72.00;;;;;;6163231;23;20041;-88
2022/08/09 22:03:52;;;;;;;;;;;;;;;;;;;;;
2022/08/09 22:06:18;;;;;;;1.27;0.50;;;22.30;71.90;;;;;;6161886;23;20056;-87
2022/08/09 22:08:48;;;;;;;1.60;0.75;;;22.40;71.80;;;;;;6134703;23;20427;-87
2022/08/09 22:11:43;;;;;;;0.88;0.50;;;22.40;71.60;;;;;;6137730;23;20378;-88
2022/08/09 22:14:20;;;;;;;2.10;0.70;;;22.30;71.80;;;;;;6140272;23;20068;-88
2022/08/09 22:16:57;;;;;;;0.80;0.60;;;22.20;72.00;;;;;;6161768;23;20001;-86
2022/08/09 22:19:41;;;;;;;1.20;0.70;;;22.10;72.10;;;;;;6160893;23;20013;-88
2022/08/09 22:22:33;;;;;;;2.30;0.70;;;22.10;72.30;;;;;;6160399;23;20009;-87
2022/08/09 22:25:01;;;;;;;1.88;0.80;;;22.00;72.30;;;;;;6161335;23;20008;-86
2022/08/09 22:27:41;;;;;;;0.80;0.73;;;22.10;72.30;;;;;;6162801;23;20001;-88
2022/08/09 22:30:18;;;;;;;1.95;0.80;;;22.00;72.40;;;;;;6161163;23;20431;-87
2022/08/09 22:33:23;;;;;;;0.98;0.65;;;21.90;72.50;;;;;;6164901;23;20017;-88
2022/08/09 22:35:58;;;;;;;1.15;0.70;;;21.90;72.60;;;;;;6161673;23;20068;-89
2022/08/09 22:38:24;;;;;;;0.98;0.68;;;21.90;72.50;;;;;;6161470;23;20006;-88
2022/08/09 22:41:27;;;;;;;0.85;0.60;;;22.00;72.40;;;;;;6161981;23;20002;-85
2022/08/09 22:44:06;;;;;;;0.90;0.70;;;21.90;72.50;;;;;;6174656;23;20009;-88
2022/08/09 22:46:40;;;;;;;3.17;0.77;;;21.90;72.50;;;;;;6183735;23;20062;-87
2022/08/09 22:49:32;;;;;;;2.47;0.88;;;21.90;72.50;;;;;;6183443;23;19993;-88
2022/08/09 22:51:58;;;;;;;1.25;0.93;;;21.90;72.50;;;;;;6183493;23;20053;-89
2022/08/09 22:54:51;;;;;;;2.78;1.27;;;21.90;72.30;;;;;;6181914;23;20001;-85
2022/08/09 22:57:40;;;;;;;1.40;1.30;;;21.90;72.20;;;;;;6163563;23;20001;-87
2022/08/09 23:00:08;;;;;;;1.65;1.23;;;21.90;72.20;;;;;;6161759;23;20419;-87
2022/08/09 23:02:58;;;;;;;4.43;1.35;;;22.00;72.20;;;;;;6185048;23;20031;-88
2022/08/09 23:05:26;;;;;;;1.77;1.55;;;22.00;72.20;;;;;;6161492;23;20013;-88
2022/08/09 23:10:37;;;;;;;4.47;1.65;;;21.90;72.30;;;;;;6163663;23;20079;-87
2022/08/09 23:13:27;;;;;;;1.70;1.60;;;21.80;72.50;;;;;;6164935;23;20001;-89
2022/08/09 23:16:01;;;;;;;1.88;1.70;;;21.80;72.70;;;;;;6142164;23;20009;-88
2022/08/09 23:18:38;;;;;;;;;;;;;;;;;;;;;
2022/08/09 23:21:17;;;;;;;2.25;1.67;;;21.70;72.80;;;;;;6206350;23;20005;-88
2022/08/09 23:24:02;;;;;;;2.83;1.90;;;21.70;72.90;;;;;;6194579;23;20012;-88
2022/08/09 23:26:31;;;;;;;3.28;1.80;;;21.70;73.00;;;;;;6170456;23;20012;-88
2022/08/09 23:29:12;;;;;;;;;;;;;;;;;;;;;
2022/08/09 23:31:44;;;;;;;2.30;1.80;;;21.60;73.50;;;;;;6170860;23;20050;-89
2022/08/09 23:34:30;;;;;;;2.33;1.70;;;21.50;73.50;;;;;;6192337;23;19997;-88
2022/08/09 23:37:07;;;;;;;2.85;2.00;;;21.50;73.50;;;;;;6194107;23;19997;-87
2022/08/09 23:39:37;;;;;;;2.35;1.95;;;21.40;73.80;;;;;;6167560;23;20339;-88
2022/08/09 23:42:08;;;;;;;2.53;2.05;;;21.40;73.90;;;;;;6143177;23;20387;-87
2022/08/09 23:44:46;;;;;;;;;;;;;;;;;;;;;
2022/08/09 23:47:13;;;;;;;2.10;1.77;;;21.50;73.80;;;;;;6193790;23;20028;-86
2022/08/09 23:49:42;;;;;;;3.63;1.67;;;21.60;73.70;;;;;;6167386;23;20091;-88
2022/08/09 23:52:10;;;;;;;2.08;1.88;;;21.60;73.70;;;;;;6167396;23;20001;-88
2022/08/09 23:54:45;;;;;;;1.95;1.80;;;21.60;73.80;;;;;;6144470;23;20005;-88